createdAt,value
2023-04-09T00:03:16.869Z,102209.03
2023-04-09T00:08:19.007Z,102214.34
2023-04-09T00:13:31.884Z,102207.63
2023-04-09T00:18:42.001Z,102212.25
2023-04-09T00:23:43.851Z,102197.06
2023-04-09T00:28:46.316Z,102209.09
2023-04-09T00:33:49.491Z,102206.41
2023-04-09T00:38:51.901Z,102205.56
2023-04-09T00:43:56.102Z,102207.31
2023-04-09T00:48:59.365Z,102203.81
2023-04-09T00:54:01.594Z,102209.44
2023-04-09T00:59:03.732Z,102207.53
2023-04-09T01:04:07.598Z,102213.03
2023-04-09T01:09:18.141Z,102217.41
2023-04-09T01:14:30.362Z,102214.16
2023-04-09T01:19:43.826Z,102212.72
2023-04-09T01:25:00.621Z,102195.28
2023-04-09T01:30:04.999Z,102214.09
2023-04-09T01:35:08.619Z,102207.59
2023-04-09T01:40:11.238Z,102213.34
2023-04-09T01:45:15.994Z,102213.03
2023-04-09T01:50:18.144Z,102198.59
2023-04-09T01:55:19.988Z,102195.44
2023-04-09T02:00:24.666Z,102212.66
2023-04-09T02:05:31.986Z,102198.50
2023-04-09T02:10:35.946Z,102211.19
2023-04-09T02:15:40.642Z,102212.09
2023-04-09T02:20:43.105Z,102211.22
2023-04-09T02:25:45.358Z,102222.59
2023-04-09T02:30:49.173Z,102216.66
2023-04-09T02:35:51.134Z,102218.53
2023-04-09T02:40:53.129Z,102223.66
2023-04-09T02:45:59.220Z,102214.59
2023-04-09T02:51:02.058Z,102214.16
2023-04-09T02:56:05.171Z,102208.84
2023-04-09T03:01:08.406Z,102213.25
2023-04-09T03:06:10.573Z,102203.81
2023-04-09T03:11:12.635Z,102206.06
2023-04-09T03:16:16.221Z,102207.31
2023-04-09T03:21:18.387Z,102196.72
2023-04-09T03:26:20.173Z,102196.91
2023-04-09T03:31:23.941Z,102202.66
2023-04-09T03:36:26.239Z,102196.78
2023-04-09T03:41:28.220Z,102199.41
2023-04-09T03:46:31.374Z,102197.25
2023-04-09T03:51:35.916Z,102207.94
2023-04-09T03:56:38.120Z,102201.91
2023-04-09T04:01:41.608Z,102196.56
2023-04-09T04:06:43.696Z,102198.31
2023-04-09T04:11:45.910Z,102201.03
2023-04-09T04:16:49.637Z,102195.72
2023-04-09T04:21:51.808Z,102210.25
2023-04-09T04:26:54.017Z,102211.81
2023-04-09T04:31:58.138Z,102214.41
2023-04-09T04:36:59.896Z,102215.59
2023-04-09T04:42:02.117Z,102216.75
2023-04-09T04:47:05.641Z,102213.81
2023-04-09T04:52:08.155Z,102215.25
2023-04-09T04:57:10.399Z,102224.69
2023-04-09T05:02:13.960Z,102226.66
2023-04-09T05:07:15.760Z,102226.28
2023-04-09T05:12:17.996Z,102233.53
2023-04-09T05:17:21.645Z,102235.50
2023-04-09T05:22:24.498Z,102239.88
2023-04-09T05:27:26.576Z,102232.75
2023-04-09T05:32:30.250Z,102241.41
2023-04-09T05:37:33.028Z,102232.78
2023-04-09T05:42:35.110Z,102234.31
2023-04-09T05:47:38.796Z,102244.75
2023-04-09T05:52:41.150Z,102244.00
2023-04-09T05:57:43.318Z,102254.94
2023-04-09T06:02:49.788Z,102263.31
2023-04-09T06:07:51.876Z,102257.16
2023-04-09T06:12:54.055Z,102259.88
2023-04-09T06:17:59.399Z,102266.97
2023-04-09T06:23:01.689Z,102264.94
2023-04-09T06:28:03.989Z,102263.66
2023-04-09T06:33:07.765Z,102255.19
2023-04-09T06:38:09.932Z,102262.28
2023-04-09T06:43:11.646Z,102253.69
2023-04-09T06:48:14.773Z,102259.31
2023-04-09T06:53:16.840Z,102257.16
2023-04-09T06:58:18.570Z,102255.03
2023-04-09T07:03:24.180Z,102259.50
2023-04-09T07:08:27.296Z,102268.81
2023-04-09T07:13:29.469Z,102262.28
2023-04-09T07:18:32.654Z,102267.41
2023-04-09T07:23:35.368Z,102268.88
2023-04-09T07:28:37.299Z,102270.69
2023-04-09T07:33:41.266Z,102274.19
2023-04-09T07:38:43.661Z,102275.78
2023-04-09T07:43:45.369Z,102273.06
2023-04-09T07:48:48.599Z,102277.13
2023-04-09T07:53:50.395Z,102280.13
2023-04-09T07:58:52.490Z,102283.59
2023-04-09T08:03:56.472Z,102283.97
2023-04-09T08:08:58.807Z,102288.16
2023-04-09T08:14:03.641Z,102292.47
2023-04-09T08:19:06.785Z,102299.31
2023-04-09T08:24:08.790Z,102300.28
2023-04-09T08:29:12.416Z,102304.94
2023-04-09T08:34:15.718Z,102303.13
2023-04-09T08:39:18.056Z,102300.78
2023-04-09T08:44:20.424Z,102299.28
2023-04-09T08:49:23.938Z,102295.66
2023-04-09T08:54:29.103Z,102297.84
2023-04-09T08:59:30.891Z,102292.19
2023-04-09T09:04:44.369Z,102286.88
2023-04-09T09:09:53.587Z,102291.28
2023-04-09T09:14:55.625Z,102291.13
2023-04-09T09:19:58.913Z,102294.44
2023-04-09T09:25:00.669Z,102292.69
2023-04-09T09:30:03.637Z,102283.84
2023-04-09T09:35:07.845Z,102289.41
2023-04-09T09:40:11.219Z,102283.09
2023-04-09T09:45:18.216Z,102276.03
2023-04-09T09:50:24.017Z,102277.28
2023-04-09T09:55:29.555Z,102271.28
2023-04-09T10:00:32.895Z,102276.66
2023-04-09T10:05:38.963Z,102261.34
2023-04-09T10:10:41.560Z,102260.38
2023-04-09T10:15:44.394Z,102258.97
2023-04-09T10:20:54.879Z,102249.09
2023-04-09T10:25:56.759Z,102245.56
2023-04-09T10:30:59.481Z,102238.03
2023-04-09T10:36:05.932Z,102234.31
2023-04-09T10:41:13.784Z,102246.03
2023-04-09T10:46:29.822Z,102241.13
2023-04-09T10:51:36.612Z,102246.59
2023-04-09T10:56:38.386Z,102232.59
2023-04-09T11:01:52.550Z,102239.28
2023-04-09T11:06:56.410Z,102238.00
2023-04-09T11:11:58.179Z,102238.09
2023-04-09T11:16:59.934Z,102236.41
2023-04-09T11:22:05.641Z,102239.63
2023-04-09T11:27:07.424Z,102237.22
2023-04-09T11:32:09.221Z,102224.84
2023-04-09T11:37:16.207Z,102225.06
2023-04-09T11:42:18.521Z,102210.63
2023-04-09T11:47:21.713Z,102205.25
2023-04-09T11:52:24.967Z,102185.59
2023-04-09T11:57:42.967Z,102190.47
2023-04-09T12:02:46.507Z,102184.41
2023-04-09T12:07:56.420Z,102187.16
2023-04-09T12:13:02.787Z,102191.00
2023-04-09T12:18:08.724Z,102187.03
2023-04-09T12:23:13.518Z,102198.88
2023-04-09T12:28:16.133Z,102183.78
2023-04-09T12:33:18.091Z,102184.72
2023-04-09T12:38:21.656Z,102176.56
2023-04-09T12:43:23.711Z,102178.03
2023-04-09T12:48:25.485Z,102175.72
2023-04-09T12:53:29.098Z,102170.38
2023-04-09T12:58:31.306Z,102166.56
2023-04-09T13:03:33.531Z,102170.09
2023-04-09T13:08:36.697Z,102170.47
2023-04-09T13:13:39.406Z,102164.47
2023-04-09T13:18:42.629Z,102156.06
2023-04-09T13:23:46.029Z,102143.44
2023-04-09T13:28:47.845Z,102140.34
2023-04-09T13:33:49.997Z,102139.75
2023-04-09T13:38:53.928Z,102147.47
2023-04-09T13:43:56.031Z,102146.00
2023-04-09T13:48:57.836Z,102146.19
2023-04-09T13:54:01.202Z,102134.88
2023-04-09T13:59:03.432Z,102125.84
2023-04-09T14:04:05.306Z,102132.28
2023-04-09T14:09:08.658Z,102117.13
2023-04-09T14:14:10.458Z,102106.06
2023-04-09T14:19:12.399Z,102109.72
2023-04-09T14:24:15.468Z,102095.34
2023-04-09T14:29:17.266Z,102104.69
2023-04-09T14:34:18.998Z,102104.69
2023-04-09T14:39:22.410Z,102095.75
2023-04-09T14:44:24.241Z,102097.56
2023-04-09T14:49:26.108Z,102092.63
2023-04-09T14:54:29.379Z,102090.53
2023-04-09T14:59:31.146Z,102089.19
2023-04-09T15:04:33.416Z,102097.25
2023-04-09T15:09:36.564Z,102087.47
2023-04-09T15:14:38.291Z,102081.63
2023-04-09T15:19:40.099Z,102082.09
2023-04-09T15:24:43.549Z,102076.84
2023-04-09T15:29:45.396Z,102072.78
2023-04-09T15:34:47.142Z,102084.38
2023-04-09T15:39:50.453Z,102075.59
2023-04-09T15:44:52.275Z,102077.16
2023-04-09T15:49:54.064Z,102069.53
2023-04-09T15:54:57.598Z,102069.72
2023-04-09T15:59:59.288Z,102072.16
2023-04-09T16:05:01.169Z,102074.66
2023-04-09T16:10:05.009Z,102074.69
2023-04-09T16:15:08.268Z,102072.00
2023-04-09T16:20:10.268Z,102082.41
2023-04-09T16:25:13.390Z,102079.78
2023-04-09T16:30:15.164Z,102070.13
2023-04-09T16:35:17.041Z,102082.44
2023-04-09T16:40:21.240Z,102078.19
2023-04-09T16:45:23.152Z,102072.84
2023-04-09T16:50:24.916Z,102069.53
2023-04-09T16:55:28.108Z,102069.59
2023-04-09T17:00:29.832Z,102077.66
2023-04-09T17:05:31.641Z,102075.88
2023-04-09T17:10:36.730Z,102075.88
2023-04-09T17:15:38.576Z,102081.22
2023-04-09T17:20:40.362Z,102088.34
2023-04-09T17:25:44.145Z,102083.88
2023-04-09T17:30:45.980Z,102093.59
2023-04-09T17:35:51.326Z,102083.81
2023-04-09T17:40:57.224Z,102090.84
2023-04-09T17:46:01.965Z,102087.97
2023-04-09T17:51:04.574Z,102081.56
2023-04-09T17:56:08.905Z,102091.97
2023-04-09T18:01:11.642Z,102082.00
2023-04-09T18:06:13.437Z,102088.91
2023-04-09T18:11:16.611Z,102091.84
2023-04-09T18:16:18.367Z,102085.69
2023-04-09T18:21:20.056Z,102087.25
2023-04-09T18:26:23.236Z,102100.94
2023-04-09T18:31:25.082Z,102106.31
2023-04-09T18:36:26.973Z,102109.72
2023-04-09T18:41:30.295Z,102111.97
2023-04-09T18:46:32.056Z,102117.38
2023-04-09T18:51:33.984Z,102120.19
2023-04-09T18:56:37.171Z,102124.78
2023-04-09T19:01:39.463Z,102119.16
2023-04-09T19:06:41.283Z,102132.84
2023-04-09T19:11:44.554Z,102127.13
2023-04-09T19:16:46.758Z,102125.59
2023-04-09T19:21:48.669Z,102121.50
2023-04-09T19:26:52.131Z,102124.13
2023-04-09T19:31:53.972Z,102126.47
2023-04-09T19:36:55.857Z,102124.97
2023-04-09T19:41:59.227Z,102119.13
2023-04-09T19:47:01.126Z,102122.31
2023-04-09T19:52:03.320Z,102119.53
2023-04-09T19:57:06.576Z,102128.78
2023-04-09T20:02:08.764Z,102131.78
2023-04-09T20:07:10.797Z,102124.84
2023-04-09T20:12:14.104Z,102134.38
2023-04-09T20:17:15.860Z,102126.53
2023-04-09T20:22:17.664Z,102134.19
2023-04-09T20:27:20.730Z,102134.63
2023-04-09T20:32:22.536Z,102136.50
2023-04-09T20:37:24.379Z,102138.84
2023-04-09T20:42:27.901Z,102145.31
2023-04-09T20:47:30.260Z,102144.16
2023-04-09T20:52:32.079Z,102138.78
2023-04-09T20:57:35.488Z,102142.44
2023-04-09T21:02:38.897Z,102146.50
2023-04-09T21:07:41.027Z,102139.06
2023-04-09T21:12:44.202Z,102133.03
2023-04-09T21:17:46.319Z,102132.09
2023-04-09T21:22:48.483Z,102131.34
2023-04-09T21:27:51.961Z,102137.09
2023-04-09T21:32:54.417Z,102123.59
2023-04-09T21:37:56.796Z,102117.94
2023-04-09T21:43:00.434Z,102124.53
2023-04-09T21:48:02.172Z,102126.66
2023-04-09T21:53:04.340Z,102136.44
2023-04-09T21:58:07.462Z,102136.34
2023-04-09T22:03:09.362Z,102135.50
2023-04-09T22:08:11.444Z,102139.31
2023-04-09T22:13:15.008Z,102141.94
2023-04-09T22:18:17.098Z,102132.88
2023-04-09T22:23:19.878Z,102144.69
2023-04-09T22:28:22.998Z,102142.06
2023-04-09T22:33:25.738Z,102123.25
2023-04-09T22:38:27.754Z,102132.03
2023-04-09T22:43:31.491Z,102141.19
2023-04-09T22:48:35.869Z,102149.06
2023-04-09T22:53:43.615Z,102142.66
2023-04-09T22:58:46.893Z,102149.69
2023-04-09T23:03:50.058Z,102142.53
2023-04-09T23:08:52.055Z,102148.31
2023-04-09T23:13:55.670Z,102145.06
2023-04-09T23:18:57.461Z,102141.03
2023-04-09T23:23:59.651Z,102141.31
2023-04-09T23:29:03.094Z,102148.53
2023-04-09T23:34:05.424Z,102147.84
2023-04-09T23:39:07.499Z,102145.38
2023-04-09T23:44:11.203Z,102146.44
2023-04-09T23:49:13.778Z,102151.50
2023-04-09T23:54:15.721Z,102146.75
2023-04-09T23:59:19.433Z,102138.19
